createdAt,value
2023-03-12T00:00:22.181Z,1.17
2023-03-12T00:02:53.845Z,1.07
2023-03-12T00:05:22.890Z,1.12
2023-03-12T00:07:52.759Z,1.06
2023-03-12T00:10:22.635Z,1.08
2023-03-12T00:12:49.285Z,1.04
2023-03-12T00:15:15.932Z,1.13
2023-03-12T00:17:45.076Z,1.18
2023-03-12T00:20:15.523Z,1.07
2023-03-12T00:22:42.199Z,0.99
2023-03-12T00:25:13.827Z,1.08
2023-03-12T00:27:43.597Z,1.11
2023-03-12T00:30:11.844Z,1.01
2023-03-12T00:32:38.804Z,1.00
2023-03-12T00:35:09.426Z,1.08
2023-03-12T00:37:37.997Z,1.10
2023-03-12T00:40:09.687Z,1.03
2023-03-12T00:42:36.419Z,1.09
2023-03-12T00:45:03.201Z,0.95
2023-03-12T00:47:29.870Z,1.12
2023-03-12T00:50:01.432Z,1.13
2023-03-12T00:52:28.079Z,1.15
2023-03-12T00:54:59.063Z,1.23
2023-03-12T00:57:25.759Z,1.09
2023-03-12T00:59:54.823Z,1.06
2023-03-12T01:02:21.853Z,1.12
2023-03-12T01:04:50.896Z,1.02
2023-03-12T01:07:17.649Z,0.89
2023-03-12T01:09:44.638Z,0.97
2023-03-12T01:12:14.027Z,1.00
2023-03-12T01:14:40.502Z,1.03
2023-03-12T01:17:07.156Z,0.83
2023-03-12T01:19:36.471Z,0.92
2023-03-12T01:22:03.407Z,0.84
2023-03-12T01:24:33.341Z,0.78
2023-03-12T01:27:02.413Z,0.81
2023-03-12T01:29:29.224Z,0.93
2023-03-12T01:31:55.885Z,0.94
2023-03-12T01:34:22.788Z,0.89
2023-03-12T01:36:49.484Z,0.89
2023-03-12T01:39:18.737Z,0.83
2023-03-12T01:41:45.319Z,0.80
2023-03-12T01:44:16.285Z,0.84
2023-03-12T01:46:47.342Z,0.69
2023-03-12T01:49:23.140Z,0.72
2023-03-12T01:51:49.850Z,0.95
2023-03-12T01:54:39.976Z,1.00
2023-03-12T01:57:13.225Z,1.08
2023-03-12T01:59:53.613Z,1.07
2023-03-12T02:02:27.146Z,1.02
2023-03-12T02:05:22.684Z,0.91
2023-03-12T02:07:49.282Z,0.76
2023-03-12T02:10:17.214Z,0.87
2023-03-12T02:12:43.988Z,0.68
2023-03-12T02:15:11.404Z,0.65
2023-03-12T02:17:39.691Z,0.54
2023-03-12T02:20:38.593Z,0.64
2023-03-12T02:23:35.082Z,0.69
2023-03-12T02:26:04.717Z,0.49
2023-03-12T02:28:42.956Z,0.20
2023-03-12T02:31:14.891Z,0.26
2023-03-12T02:33:42.268Z,0.40
2023-03-12T02:36:12.172Z,0.33
2023-03-12T02:38:50.382Z,0.02
2023-03-12T02:41:29.007Z,0.14
2023-03-12T02:44:09.335Z,0.25
2023-03-12T02:46:43.542Z,0.14
2023-03-12T02:49:13.416Z,0.16
2023-03-12T02:51:43.797Z,0.20
2023-03-12T02:54:14.892Z,0.09
2023-03-12T02:56:44.298Z,0.04
2023-03-12T02:59:14.685Z,0.30
2023-03-12T03:01:49.201Z,-0.03
2023-03-12T03:04:18.620Z,-0.03
2023-03-12T03:06:45.510Z,0.18
2023-03-12T03:09:14.639Z,-0.21
2023-03-12T03:11:44.208Z,-0.20
2023-03-12T03:14:11.208Z,0.05
2023-03-12T03:16:37.859Z,0.03
2023-03-12T03:19:05.231Z,-0.08
2023-03-12T03:21:32.523Z,0.03
2023-03-12T03:23:59.346Z,0.16
2023-03-12T03:26:29.506Z,0.24
2023-03-12T03:28:58.363Z,0.30
2023-03-12T03:31:25.076Z,0.17
2023-03-12T03:33:54.506Z,0.35
2023-03-12T03:36:21.158Z,0.37
2023-03-12T03:38:49.501Z,0.40
2023-03-12T03:41:20.716Z,0.42
2023-03-12T03:43:55.810Z,0.39
2023-03-12T03:46:22.542Z,0.43
2023-03-12T03:48:51.111Z,0.59
2023-03-12T03:51:17.814Z,0.50
2023-03-12T03:53:49.556Z,0.49
2023-03-12T03:56:16.560Z,0.31
2023-03-12T03:58:45.571Z,-0.07
2023-03-12T04:01:18.365Z,0.12
2023-03-12T04:03:47.405Z,0.15
2023-03-12T04:06:16.230Z,0.19
2023-03-12T04:08:42.959Z,0.36
2023-03-12T04:11:15.599Z,0.12
2023-03-12T04:13:45.528Z,-0.01
2023-03-12T04:16:13.344Z,0.16
2023-03-12T04:18:40.497Z,0.09
2023-03-12T04:21:10.339Z,-0.10
2023-03-12T04:23:40.445Z,-0.02
2023-03-12T04:26:09.924Z,0.04
2023-03-12T04:28:39.306Z,-0.11
2023-03-12T04:31:10.942Z,-0.28
2023-03-12T04:33:39.507Z,-0.16
2023-03-12T04:36:09.662Z,-0.14
2023-03-12T04:38:38.590Z,-0.16
2023-03-12T04:41:12.710Z,-0.04
2023-03-12T04:43:42.090Z,-0.02
2023-03-12T04:46:11.446Z,-0.08
2023-03-12T04:48:38.250Z,-0.03
2023-03-12T04:51:08.226Z,-0.09
2023-03-12T04:53:37.442Z,0.01
2023-03-12T04:56:04.417Z,-0.14
2023-03-12T04:58:31.069Z,-0.20
2023-03-12T05:00:57.786Z,-0.11
2023-03-12T05:03:24.562Z,-0.22
2023-03-12T05:05:51.401Z,-0.20
2023-03-12T05:08:22.963Z,-0.20
2023-03-12T05:10:51.896Z,-0.17
2023-03-12T05:13:25.877Z,-0.38
2023-03-12T05:15:54.902Z,-0.28
2023-03-12T05:18:21.785Z,-0.40
2023-03-12T05:21:00.636Z,-0.25
2023-03-12T05:23:28.319Z,-0.32
2023-03-12T05:25:55.662Z,-0.18
2023-03-12T05:28:27.805Z,-0.09
2023-03-12T05:31:02.233Z,-0.10
2023-03-12T05:33:33.790Z,-0.11
2023-03-12T05:36:00.473Z,-0.01
2023-03-12T05:38:32.045Z,0.05
2023-03-12T05:41:01.824Z,-0.03
2023-03-12T05:43:28.990Z,0.09
2023-03-12T05:46:04.174Z,0.08
2023-03-12T05:48:33.612Z,0.21
2023-03-12T05:51:00.119Z,0.13
2023-03-12T05:53:28.966Z,0.23
2023-03-12T05:55:55.685Z,0.28
2023-03-12T05:58:22.399Z,0.34
2023-03-12T06:00:51.291Z,0.56
2023-03-12T06:03:20.295Z,0.67
2023-03-12T06:05:48.100Z,0.55
2023-03-12T06:08:20.022Z,0.59
2023-03-12T06:10:52.189Z,0.70
2023-03-12T06:13:19.351Z,0.79
2023-03-12T06:15:46.013Z,0.81
2023-03-12T06:18:12.646Z,0.94
2023-03-12T06:20:39.323Z,0.97
2023-03-12T06:23:06.042Z,1.13
2023-03-12T06:25:37.966Z,1.03
2023-03-12T06:28:07.966Z,1.17
2023-03-12T06:30:37.120Z,1.21
2023-03-12T06:33:04.823Z,1.01
2023-03-12T06:35:34.938Z,1.05
2023-03-12T06:38:03.783Z,1.24
2023-03-12T06:40:33.117Z,1.27
2023-03-12T06:43:02.152Z,1.25
2023-03-12T06:45:29.385Z,1.37
2023-03-12T06:47:56.044Z,1.15
2023-03-12T06:50:23.103Z,1.13
2023-03-12T06:52:54.468Z,1.17
2023-03-12T06:55:25.925Z,1.31
2023-03-12T06:57:52.663Z,1.13
2023-03-12T07:00:19.882Z,1.09
2023-03-12T07:02:46.492Z,1.18
2023-03-12T07:05:13.269Z,1.27
2023-03-12T07:07:42.137Z,1.28
2023-03-12T07:10:13.292Z,1.30
2023-03-12T07:12:44.815Z,1.19
2023-03-12T07:15:16.281Z,1.14
2023-03-12T07:17:45.243Z,1.16
2023-03-12T07:27:46.134Z,1.46
2023-03-12T07:30:52.136Z,1.68
2023-03-12T07:33:23.333Z,1.72
2023-03-12T07:35:52.613Z,1.97
2023-03-12T07:38:19.637Z,1.90
2023-03-12T07:40:53.458Z,2.03
2023-03-12T07:43:21.706Z,1.93
2023-03-12T07:45:51.012Z,2.22
2023-03-12T07:48:21.456Z,2.19
2023-03-12T07:50:48.738Z,2.10
2023-03-12T07:53:18.352Z,2.04
2023-03-12T07:55:50.314Z,2.11
2023-03-12T07:58:26.863Z,2.15
2023-03-12T08:00:56.005Z,2.10
2023-03-12T08:03:25.191Z,2.34
2023-03-12T08:05:59.887Z,2.20
2023-03-12T08:08:26.787Z,2.26
2023-03-12T08:10:56.899Z,2.17
2023-03-12T08:13:24.522Z,2.38
2023-03-12T08:15:53.013Z,2.38
2023-03-12T08:18:28.059Z,2.60
2023-03-12T08:20:57.215Z,2.32
2023-03-12T08:23:29.098Z,2.48
2023-03-12T08:25:58.013Z,2.41
2023-03-12T08:28:25.602Z,2.62
2023-03-12T08:30:58.645Z,2.63
2023-03-12T08:33:28.868Z,2.77
2023-03-12T08:35:58.509Z,2.74
2023-03-12T08:38:30.076Z,2.98
2023-03-12T08:41:00.872Z,3.19
2023-03-12T08:43:32.814Z,3.41
2023-03-12T08:46:02.137Z,3.28
2023-03-12T09:01:55.047Z,3.09
2023-03-12T09:04:24.435Z,3.46
2023-03-12T09:06:56.416Z,3.42
2023-03-12T09:09:23.158Z,3.47
2023-03-12T09:11:51.968Z,3.85
2023-03-12T09:15:02.068Z,3.79
2023-03-12T09:17:07.868Z,3.69
2023-03-12T09:19:36.776Z,3.68
2023-03-12T09:22:03.353Z,4.00
2023-03-12T09:24:30.398Z,4.00
2023-03-12T09:26:57.074Z,3.69
2023-03-12T09:29:24.850Z,3.89
2023-03-12T09:31:51.873Z,3.91
2023-03-12T09:34:18.488Z,4.13
2023-03-12T09:36:45.179Z,4.23
2023-03-12T09:39:14.309Z,4.68
2023-03-12T09:41:47.756Z,4.44
2023-03-12T09:44:56.731Z,4.71
2023-03-12T09:47:34.896Z,5.07
2023-03-12T09:50:19.671Z,4.94
2023-03-12T09:52:54.500Z,4.98
2023-03-12T09:55:23.049Z,4.95
2023-03-12T09:57:51.522Z,5.03
2023-03-12T10:00:27.433Z,5.19
2023-03-12T10:03:02.981Z,5.31
2023-03-12T10:05:53.921Z,5.63
2023-03-12T10:08:35.058Z,6.05
2023-03-12T10:11:26.117Z,6.25
2023-03-12T10:14:33.218Z,6.15
2023-03-12T10:17:07.671Z,6.33
2023-03-12T10:19:58.539Z,6.74
2023-03-12T10:22:35.036Z,6.75
2023-03-12T10:25:13.964Z,6.39
2023-03-12T10:27:41.356Z,5.81
2023-03-12T10:30:38.193Z,6.73
2023-03-12T10:33:13.499Z,6.88
2023-03-12T10:35:42.858Z,7.11
2023-03-12T10:38:25.626Z,7.68
2023-03-12T10:40:52.689Z,7.13
2023-03-12T10:43:19.409Z,7.54
2023-03-12T10:46:01.263Z,7.21
2023-03-12T10:48:28.058Z,7.06
2023-03-12T10:51:08.517Z,7.62
2023-03-12T10:53:45.033Z,7.09
2023-03-12T10:56:22.630Z,7.27
2023-03-12T10:58:54.560Z,7.93
2023-03-12T11:01:29.761Z,7.47
2023-03-12T11:04:16.997Z,8.73
2023-03-12T11:06:43.921Z,8.71
2023-03-12T11:09:20.127Z,8.94
2023-03-12T11:11:48.941Z,8.58
2023-03-12T11:14:24.684Z,8.28
2023-03-12T11:16:52.795Z,8.66
2023-03-12T11:19:34.657Z,8.81
2023-03-12T11:22:09.017Z,9.28
2023-03-12T11:24:36.023Z,9.28
2023-03-12T11:27:15.868Z,9.24
2023-03-12T11:29:49.063Z,9.38
2023-03-12T11:32:36.451Z,9.17
2023-03-12T11:35:09.762Z,7.99
2023-03-12T11:37:55.138Z,7.92
2023-03-12T11:41:17.297Z,7.76
2023-03-12T11:43:58.294Z,8.45
2023-03-12T11:46:57.627Z,8.28
2023-03-12T11:49:41.078Z,7.99
2023-03-12T11:52:46.933Z,8.02
2023-03-12T11:55:22.615Z,8.27
2023-03-12T11:58:07.331Z,7.94
2023-03-12T12:00:39.115Z,8.24
2023-03-12T12:03:49.379Z,9.02
2023-03-12T12:06:32.047Z,7.88
2023-03-12T12:09:17.033Z,8.03
2023-03-12T12:12:20.997Z,8.34
2023-03-12T12:15:12.544Z,8.06
2023-03-12T12:17:44.825Z,8.21
2023-03-12T12:20:20.147Z,7.71
2023-03-12T12:23:02.199Z,8.10
2023-03-12T12:25:40.341Z,8.05
2023-03-12T12:28:26.213Z,8.03
2023-03-12T12:31:08.214Z,8.38
2023-03-12T12:33:50.627Z,8.59
2023-03-12T12:36:19.491Z,8.63
2023-03-12T12:38:51.104Z,8.84
2023-03-12T12:41:21.048Z,8.09
2023-03-12T12:43:59.464Z,8.36
2023-03-12T12:46:30.896Z,8.47
2023-03-12T12:49:01.784Z,8.39
2023-03-12T12:51:36.207Z,8.55
2023-03-12T12:54:20.994Z,8.32
2023-03-12T12:57:08.309Z,8.38
2023-03-12T12:59:42.770Z,8.54
2023-03-12T13:02:28.226Z,8.43
2023-03-12T13:05:01.369Z,8.64
2023-03-12T13:07:28.232Z,8.82
2023-03-12T13:09:57.594Z,8.78
2023-03-12T13:12:52.821Z,8.52
2023-03-12T13:15:30.761Z,8.66
2023-03-12T13:18:07.438Z,8.65
2023-03-12T13:20:42.170Z,8.68
2023-03-12T13:23:32.108Z,8.39
2023-03-12T13:26:38.501Z,8.22
2023-03-12T13:29:31.900Z,8.17
2023-03-12T13:31:58.727Z,7.99
2023-03-12T13:34:28.495Z,8.20
2023-03-12T13:37:03.371Z,8.46
2023-03-12T13:39:39.465Z,8.22
2023-03-12T13:42:27.394Z,8.37
2023-03-12T13:44:54.407Z,8.67
2023-03-12T13:47:40.223Z,8.56
2023-03-12T13:50:15.745Z,8.75
2023-03-12T13:53:01.276Z,8.88
2023-03-12T13:55:31.671Z,8.56
2023-03-12T13:58:21.674Z,8.55
2023-03-12T14:00:56.286Z,8.29
2023-03-12T14:03:28.447Z,8.32
2023-03-12T14:06:02.859Z,8.30
2023-03-12T14:09:08.451Z,8.08
2023-03-12T14:11:58.696Z,8.20
2023-03-12T14:14:45.922Z,7.85
2023-03-12T14:17:21.521Z,8.07
2023-03-12T14:19:56.472Z,8.22
2023-03-12T14:22:29.661Z,8.26
2023-03-12T14:25:04.480Z,8.34
2023-03-12T14:27:36.888Z,8.41
2023-03-12T14:30:15.860Z,8.31
2023-03-12T14:32:48.255Z,8.10
2023-03-12T14:35:26.068Z,8.19
2023-03-12T14:37:59.734Z,8.13
2023-03-12T14:40:46.416Z,8.06
2023-03-12T14:43:40.646Z,8.09
2023-03-12T14:46:16.920Z,8.18
2023-03-12T14:48:46.900Z,8.32
2023-03-12T14:51:24.708Z,7.99
2023-03-12T14:53:52.145Z,7.93
2023-03-12T14:56:30.883Z,8.05
2023-03-12T14:59:03.054Z,8.00
2023-03-12T15:01:31.996Z,7.98
2023-03-12T15:04:08.413Z,8.11
2023-03-12T15:06:49.978Z,7.86
2023-03-12T15:09:18.428Z,7.84
2023-03-12T15:11:52.497Z,7.80
2023-03-12T15:14:19.580Z,7.86
2023-03-12T15:16:49.069Z,7.79
2023-03-12T15:19:23.887Z,7.70
2023-03-12T15:21:51.313Z,7.84
2023-03-12T15:24:18.681Z,7.65
2023-03-12T15:26:48.148Z,7.86
2023-03-12T15:29:14.760Z,7.69
2023-03-12T15:31:46.027Z,7.61
2023-03-12T15:34:38.777Z,7.66
2023-03-12T15:37:41.478Z,7.57
2023-03-12T15:40:21.090Z,7.59
2023-03-12T15:42:48.645Z,7.50
2023-03-12T15:45:23.351Z,7.37
2023-03-12T15:47:54.514Z,7.15
2023-03-12T15:50:29.941Z,7.17
2023-03-12T15:53:06.125Z,7.29
2023-03-12T15:55:36.144Z,6.97
2023-03-12T15:58:03.348Z,7.02
2023-03-12T16:00:45.174Z,7.04
2023-03-12T16:03:23.763Z,7.04
2023-03-12T16:05:50.802Z,7.11
2023-03-12T16:08:22.809Z,7.01
2023-03-12T16:10:50.579Z,7.11
2023-03-12T16:13:22.935Z,7.10
2023-03-12T16:15:49.701Z,7.00
2023-03-12T16:18:19.755Z,6.88
2023-03-12T16:20:53.092Z,6.78
2023-03-12T16:23:20.413Z,6.83
2023-03-12T16:25:53.309Z,6.78
2023-03-12T16:28:21.297Z,6.97
2023-03-12T16:30:50.394Z,6.86
2023-03-12T16:33:20.152Z,6.76
2023-03-12T16:35:46.945Z,6.71
2023-03-12T16:38:18.446Z,6.75
2023-03-12T16:40:52.093Z,6.64
2023-03-12T16:43:30.273Z,6.77
2023-03-12T16:45:58.036Z,6.71
2023-03-12T16:48:25.603Z,6.67
2023-03-12T16:50:55.817Z,6.67
2023-03-12T16:53:26.261Z,6.69
2023-03-12T16:55:59.790Z,6.47
2023-03-12T16:58:27.547Z,6.43
2023-03-12T17:00:55.798Z,6.41
2023-03-12T17:03:35.476Z,6.39
2023-03-12T17:06:03.264Z,6.38
2023-03-12T17:08:29.965Z,6.33
2023-03-12T17:10:57.435Z,6.32
2023-03-12T17:13:39.828Z,6.30
2023-03-12T17:16:12.096Z,6.23
2023-03-12T17:18:40.255Z,6.16
2023-03-12T17:21:07.240Z,6.07
2023-03-12T17:23:36.755Z,5.88
2023-03-12T17:26:06.044Z,5.73
2023-03-12T17:28:34.937Z,5.59
2023-03-12T17:31:28.597Z,5.28
2023-03-12T17:34:03.327Z,5.20
2023-03-12T17:36:30.264Z,4.92
2023-03-12T17:38:56.941Z,5.05
2023-03-12T17:41:26.862Z,4.97
2023-03-12T17:44:03.856Z,4.82
2023-03-12T17:46:33.548Z,4.92
2023-03-12T17:49:00.307Z,5.01
2023-03-12T17:51:35.411Z,4.98
2023-03-12T17:54:04.259Z,5.05
2023-03-12T17:56:30.837Z,5.08
2023-03-12T17:59:02.222Z,5.00
2023-03-12T18:01:28.757Z,4.99
2023-03-12T18:03:55.885Z,5.03
2023-03-12T18:06:22.618Z,5.00
2023-03-12T18:08:50.073Z,5.03
2023-03-12T18:11:17.001Z,5.03
2023-03-12T18:13:43.649Z,5.02
2023-03-12T18:16:12.551Z,5.00
2023-03-12T18:18:42.100Z,5.04
2023-03-12T18:21:08.695Z,5.05
2023-03-12T18:23:35.278Z,5.06
2023-03-12T18:26:04.695Z,5.04
2023-03-12T18:28:33.554Z,5.06
2023-03-12T18:31:04.953Z,4.98
2023-03-12T18:33:34.999Z,4.92
2023-03-12T18:36:07.683Z,4.85
2023-03-12T18:38:35.414Z,4.87
2023-03-12T18:41:07.189Z,4.76
2023-03-12T18:43:34.317Z,4.74
2023-03-12T18:46:01.164Z,4.74
2023-03-12T18:48:27.901Z,4.61
2023-03-12T18:50:57.443Z,4.67
2023-03-12T18:53:24.234Z,4.71
2023-03-12T18:55:55.760Z,4.69
2023-03-12T18:58:26.660Z,4.65
2023-03-12T19:00:54.961Z,4.62
2023-03-12T19:03:22.577Z,4.43
2023-03-12T19:06:00.020Z,4.48
2023-03-12T19:08:29.661Z,4.38
2023-03-12T19:10:58.533Z,4.30
2023-03-12T19:13:25.557Z,4.30
2023-03-12T19:15:58.938Z,4.35
2023-03-12T19:18:29.009Z,4.32
2023-03-12T19:20:58.480Z,4.24
2023-03-12T19:23:27.811Z,4.33
2023-03-12T19:25:54.451Z,4.10
2023-03-12T19:28:21.030Z,4.07
2023-03-12T19:30:49.916Z,4.09
2023-03-12T19:33:16.933Z,4.05
2023-03-12T19:35:43.617Z,4.02
2023-03-12T19:38:10.252Z,3.76
2023-03-12T19:40:41.670Z,4.03
2023-03-12T19:43:08.217Z,3.82
2023-03-12T19:45:36.298Z,3.93
2023-03-12T19:48:04.009Z,3.81
2023-03-12T19:50:30.596Z,3.76
2023-03-12T19:53:01.658Z,3.79
2023-03-12T19:55:28.401Z,3.91
2023-03-12T19:57:54.996Z,3.88
2023-03-12T20:00:21.894Z,3.92
2023-03-12T20:02:51.234Z,3.74
2023-03-12T20:05:20.376Z,3.85
2023-03-12T20:07:49.254Z,3.75
2023-03-12T20:10:15.995Z,3.77
2023-03-12T20:12:50.022Z,3.82
2023-03-12T20:15:16.696Z,3.74
2023-03-12T20:17:43.219Z,3.75
2023-03-12T20:20:10.700Z,3.60
2023-03-12T20:22:39.736Z,3.59
2023-03-12T20:25:07.206Z,3.44
2023-03-12T20:27:36.869Z,3.65
2023-03-12T20:30:03.786Z,3.64
2023-03-12T20:32:30.656Z,3.58
2023-03-12T20:35:00.325Z,3.45
2023-03-12T20:37:29.357Z,3.57
2023-03-12T20:39:58.438Z,3.63
2023-03-12T20:42:24.988Z,3.62
2023-03-12T20:44:53.749Z,3.52
2023-03-12T20:47:20.290Z,3.43
2023-03-12T20:49:51.540Z,3.47
2023-03-12T20:52:21.066Z,3.21
2023-03-12T20:54:47.640Z,3.22
2023-03-12T20:57:14.312Z,3.28
2023-03-12T20:59:43.217Z,3.02
2023-03-12T21:02:13.814Z,3.21
2023-03-12T21:04:44.297Z,3.30
2023-03-12T21:07:13.336Z,3.26
2023-03-12T21:09:42.258Z,3.30
2023-03-12T21:12:11.318Z,3.13
2023-03-12T21:14:40.917Z,3.05
2023-03-12T21:17:09.804Z,2.99
2023-03-12T21:19:38.613Z,2.91
2023-03-12T21:22:05.194Z,3.09
2023-03-12T21:24:33.451Z,3.16
2023-03-12T21:27:02.509Z,3.08
2023-03-12T21:29:31.609Z,3.18
2023-03-12T21:31:58.342Z,3.07
2023-03-12T21:34:29.378Z,3.03
2023-03-12T21:37:00.850Z,3.00
2023-03-12T21:39:32.683Z,3.07
2023-03-12T21:42:00.686Z,3.11
2023-03-12T21:44:27.372Z,3.08
2023-03-12T21:46:53.962Z,3.05
2023-03-12T21:49:22.888Z,2.77
2023-03-12T21:51:52.027Z,3.03
2023-03-12T21:54:21.983Z,3.05
2023-03-12T21:56:51.370Z,3.04
2023-03-12T21:59:18.430Z,3.28
2023-03-12T22:01:45.019Z,3.30
2023-03-12T22:04:14.030Z,3.27
2023-03-12T22:06:42.931Z,3.49
2023-03-12T22:09:11.782Z,3.56
2023-03-12T22:11:43.808Z,3.72
2023-03-12T22:14:10.728Z,3.75
2023-03-12T22:16:39.841Z,3.70
2023-03-12T22:19:07.576Z,3.81
2023-03-12T22:21:36.496Z,3.80
2023-03-12T22:24:07.833Z,3.76
2023-03-12T22:26:34.652Z,3.81
2023-03-12T22:29:07.015Z,3.73
2023-03-12T22:31:35.867Z,3.83
2023-03-12T22:34:04.791Z,4.04
2023-03-12T22:36:31.587Z,3.91
2023-03-12T22:39:03.104Z,4.10
2023-03-12T22:41:32.396Z,4.38
2023-03-12T22:44:03.742Z,4.22
2023-03-12T22:46:33.385Z,4.24
2023-03-12T22:49:01.529Z,4.21
2023-03-12T22:51:32.496Z,4.23
2023-03-12T22:53:59.412Z,4.40
2023-03-12T22:56:26.364Z,4.33
2023-03-12T22:58:52.981Z,4.29
2023-03-12T23:01:21.866Z,4.39
2023-03-12T23:03:49.784Z,4.34
2023-03-12T23:06:22.877Z,4.37
2023-03-12T23:08:52.195Z,4.46
2023-03-12T23:11:20.997Z,4.47
2023-03-12T23:13:49.878Z,4.44
2023-03-12T23:16:25.450Z,4.59
2023-03-12T23:18:52.275Z,4.77
2023-03-12T23:21:22.948Z,4.68
2023-03-12T23:23:55.097Z,4.75
2023-03-12T23:26:27.368Z,4.76
2023-03-12T23:28:58.815Z,4.89
2023-03-12T23:31:28.919Z,4.89
2023-03-12T23:33:58.563Z,4.89
2023-03-12T23:36:27.910Z,4.82
2023-03-12T23:38:57.134Z,4.81
2023-03-12T23:41:31.871Z,5.00
2023-03-12T23:43:59.099Z,5.00
2023-03-12T23:46:28.404Z,4.93
2023-03-12T23:48:57.419Z,5.03
2023-03-12T23:51:27.225Z,4.96
2023-03-12T23:54:02.034Z,5.07
2023-03-12T23:56:33.830Z,5.06
2023-03-12T23:59:00.412Z,5.07
